createdAt,value
2023-04-16T00:00:18.778Z,100585.06
2023-04-16T00:02:45.444Z,100572.72
2023-04-16T00:05:11.877Z,100587.53
2023-04-16T00:07:38.304Z,100586.72
2023-04-16T00:10:05.296Z,100589.34
2023-04-16T00:12:31.598Z,100584.13
2023-04-16T00:14:58.039Z,100594.59
2023-04-16T00:17:24.621Z,100592.88
2023-04-16T00:19:50.944Z,100591.13
2023-04-16T00:22:17.288Z,100591.16
2023-04-16T00:24:43.622Z,100597.28
2023-04-16T00:27:10.604Z,100594.69
2023-04-16T00:29:36.967Z,100592.81
2023-04-16T00:32:03.399Z,100586.63
2023-04-16T00:34:29.731Z,100600.75
2023-04-16T00:36:56.039Z,100592.78
2023-04-16T00:39:22.366Z,100591.88
2023-04-16T00:41:49.179Z,100596.38
2023-04-16T00:44:15.504Z,100598.13
2023-04-16T00:46:42.770Z,100608.69
2023-04-16T00:49:10.290Z,100603.34
2023-04-16T00:51:36.900Z,100597.13
2023-04-16T00:54:03.999Z,100612.25
2023-04-16T00:56:30.537Z,100604.28
2023-04-16T00:58:56.858Z,100606.91
2023-04-16T01:01:23.286Z,100606.78
2023-04-16T01:03:50.039Z,100618.16
2023-04-16T01:06:17.992Z,100617.31
2023-04-16T01:08:45.091Z,100609.69
2023-04-16T01:11:12.079Z,100610.41
2023-04-16T01:13:39.486Z,100607.69
2023-04-16T01:16:11.166Z,100610.44
2023-04-16T01:18:38.866Z,100625.38
2023-04-16T01:21:05.909Z,100601.59
2023-04-16T01:23:32.240Z,100610.31
2023-04-16T01:25:58.610Z,100613.91
2023-04-16T01:28:25.034Z,100603.22
2023-04-16T01:30:51.556Z,100613.81
2023-04-16T01:33:18.848Z,100612.09
2023-04-16T01:35:45.423Z,100605.97
2023-04-16T01:38:11.817Z,100605.91
2023-04-16T01:40:38.346Z,100612.16
2023-04-16T01:43:05.151Z,100611.16
2023-04-16T01:45:33.493Z,100605.94
2023-04-16T01:48:00.292Z,100609.41
2023-04-16T01:50:27.033Z,100607.53
2023-04-16T01:52:53.346Z,100615.53
2023-04-16T01:55:19.782Z,100614.72
2023-04-16T01:57:46.109Z,100617.28
2023-04-16T02:00:12.549Z,100614.47
2023-04-16T02:02:39.609Z,100615.41
2023-04-16T02:05:06.340Z,100618.22
2023-04-16T02:07:32.744Z,100621.72
2023-04-16T02:09:59.150Z,100611.97
2023-04-16T02:12:26.490Z,100618.91
2023-04-16T02:14:52.920Z,100604.09
2023-04-16T02:17:19.326Z,100603.22
2023-04-16T02:19:45.662Z,100607.56
2023-04-16T02:22:12.010Z,100612.78
2023-04-16T02:24:38.311Z,100615.31
2023-04-16T02:27:04.608Z,100626.97
2023-04-16T02:29:31.793Z,100626.06
2023-04-16T02:31:59.492Z,100630.38
2023-04-16T02:34:25.866Z,100634.78
2023-04-16T02:36:52.233Z,100631.25
2023-04-16T02:39:18.572Z,100631.25
2023-04-16T02:41:44.910Z,100634.72
2023-04-16T02:44:11.291Z,100635.63
2023-04-16T02:46:37.632Z,100637.25
2023-04-16T02:49:03.928Z,100633.00
2023-04-16T02:51:30.923Z,100632.13
2023-04-16T02:53:57.311Z,100632.16
2023-04-16T02:56:23.594Z,100633.00
2023-04-16T02:58:49.948Z,100638.44
2023-04-16T03:01:16.377Z,100641.03
2023-04-16T03:03:42.758Z,100638.28
2023-04-16T03:06:09.120Z,100642.75
2023-04-16T03:08:35.438Z,100625.94
2023-04-16T03:11:02.092Z,100630.28
2023-04-16T03:13:28.469Z,100638.06
2023-04-16T03:15:54.779Z,100630.81
2023-04-16T03:18:21.286Z,100633.28
2023-04-16T03:20:51.768Z,100636.63
2023-04-16T03:23:18.080Z,100637.38
2023-04-16T03:25:47.021Z,100629.97
2023-04-16T03:28:13.967Z,100636.56
2023-04-16T03:30:40.276Z,100628.78
2023-04-16T03:33:06.635Z,100631.47
2023-04-16T03:35:33.257Z,100640.22
2023-04-16T03:37:59.585Z,100637.50
2023-04-16T03:40:25.964Z,100634.88
2023-04-16T03:42:52.317Z,100644.69
2023-04-16T03:45:18.616Z,100644.16
2023-04-16T03:47:45.031Z,100633.94
2023-04-16T03:50:11.672Z,100646.72
2023-04-16T03:52:38.039Z,100648.69
2023-04-16T03:55:04.795Z,100647.84
2023-04-16T03:57:31.069Z,100657.53
2023-04-16T03:59:57.613Z,100662.78
2023-04-16T04:02:24.337Z,100662.66
2023-04-16T04:04:50.864Z,100667.19
2023-04-16T04:07:17.221Z,100662.88
2023-04-16T04:09:43.531Z,100673.75
2023-04-16T04:12:10.137Z,100667.59
2023-04-16T04:14:39.705Z,100664.03
2023-04-16T04:17:06.929Z,100669.31
2023-04-16T04:19:33.278Z,100660.50
2023-04-16T04:21:59.901Z,100670.28
2023-04-16T04:24:26.985Z,100677.25
2023-04-16T04:26:53.286Z,100669.19
2023-04-16T04:29:19.619Z,100671.97
2023-04-16T04:31:45.979Z,100678.06
2023-04-16T04:34:12.317Z,100684.25
2023-04-16T04:36:38.617Z,100670.97
2023-04-16T04:39:04.957Z,100677.16
2023-04-16T04:41:31.447Z,100673.66
2023-04-16T04:43:57.737Z,100690.44
2023-04-16T04:46:24.052Z,100681.56
2023-04-16T04:48:50.477Z,100674.44
2023-04-16T04:51:16.844Z,100690.31
2023-04-16T04:53:43.216Z,100687.56
2023-04-16T04:56:12.754Z,100689.34
2023-04-16T04:58:40.067Z,100688.47
2023-04-16T05:01:06.656Z,100694.72
2023-04-16T05:03:33.165Z,100686.69
2023-04-16T05:05:59.630Z,100691.00
2023-04-16T05:08:26.132Z,100690.06
2023-04-16T05:10:52.514Z,100694.47
2023-04-16T05:13:18.879Z,100699.88
2023-04-16T05:15:45.682Z,100709.53
2023-04-16T05:18:11.970Z,100713.94
2023-04-16T05:20:38.283Z,100717.44
2023-04-16T05:23:04.614Z,100713.09
2023-04-16T05:25:31.055Z,100725.53
2023-04-16T05:27:57.401Z,100706.06
2023-04-16T05:30:23.755Z,100702.50
2023-04-16T05:32:50.232Z,100715.75
2023-04-16T05:35:17.655Z,100710.53
2023-04-16T05:37:44.188Z,100716.78
2023-04-16T05:40:13.111Z,100727.44
2023-04-16T05:42:39.480Z,100718.63
2023-04-16T05:45:06.344Z,100718.69
2023-04-16T05:47:32.804Z,100723.03
2023-04-16T05:49:59.136Z,100719.81
2023-04-16T05:52:25.556Z,100731.50
2023-04-16T05:54:51.922Z,100722.75
2023-04-16T05:57:18.216Z,100733.56
2023-04-16T05:59:44.583Z,100743.41
2023-04-16T06:02:11.056Z,100734.53
2023-04-16T06:04:37.509Z,100735.31
2023-04-16T06:07:03.862Z,100732.75
2023-04-16T06:09:30.399Z,100729.38
2023-04-16T06:11:57.823Z,100733.72
2023-04-16T06:14:24.166Z,100732.94
2023-04-16T06:16:50.952Z,100734.53
2023-04-16T06:19:17.264Z,100738.75
2023-04-16T06:21:43.634Z,100739.69
2023-04-16T06:24:10.017Z,100747.59
2023-04-16T06:26:36.378Z,100751.22
2023-04-16T06:29:02.762Z,100750.31
2023-04-16T06:31:29.943Z,100751.44
2023-04-16T06:33:56.617Z,100747.25
2023-04-16T06:36:22.992Z,100739.22
2023-04-16T06:38:49.328Z,100749.81
2023-04-16T06:41:15.671Z,100756.69
2023-04-16T06:43:42.024Z,100760.16
2023-04-16T06:46:08.331Z,100764.47
2023-04-16T06:48:34.662Z,100763.50
2023-04-16T06:51:01.973Z,100765.16
2023-04-16T06:53:28.339Z,100770.69
2023-04-16T06:55:54.708Z,100768.16
2023-04-16T06:58:22.317Z,100765.50
2023-04-16T07:00:48.799Z,100762.81
2023-04-16T07:03:15.399Z,100764.47
2023-04-16T07:05:41.819Z,100771.66
2023-04-16T07:08:08.108Z,100768.00
2023-04-16T07:10:34.432Z,100765.50
2023-04-16T07:13:01.608Z,100779.84
2023-04-16T07:15:28.266Z,100778.94
2023-04-16T07:17:55.087Z,100780.84
2023-04-16T07:20:21.438Z,100773.91
2023-04-16T07:22:47.820Z,100778.13
2023-04-16T07:25:14.179Z,100765.72
2023-04-16T07:27:40.505Z,100770.94
2023-04-16T07:30:07.923Z,100775.28
2023-04-16T07:32:34.352Z,100775.25
2023-04-16T07:35:00.765Z,100785.75
2023-04-16T07:37:27.182Z,100783.94
2023-04-16T07:39:56.861Z,100787.44
2023-04-16T07:42:23.793Z,100779.72
2023-04-16T07:44:50.110Z,100799.41
2023-04-16T07:47:16.463Z,100784.59
2023-04-16T07:49:42.834Z,100790.91
2023-04-16T07:52:09.241Z,100791.03
2023-04-16T07:54:35.825Z,100796.69
2023-04-16T07:57:02.249Z,100793.34
2023-04-16T07:59:28.663Z,100798.78
2023-04-16T08:01:55.280Z,100801.16
2023-04-16T08:04:25.424Z,100791.53
2023-04-16T08:06:52.211Z,100807.06
2023-04-16T08:09:23.616Z,100808.50
2023-04-16T08:11:50.183Z,100821.72
2023-04-16T08:14:17.448Z,100815.41
2023-04-16T08:16:43.948Z,100821.47
2023-04-16T08:19:10.595Z,100817.13
2023-04-16T08:21:37.187Z,100820.75
2023-04-16T08:24:03.728Z,100820.84
2023-04-16T08:26:30.043Z,100825.31
2023-04-16T08:28:56.402Z,100828.94
2023-04-16T08:31:22.768Z,100841.41
2023-04-16T08:33:49.142Z,100841.53
2023-04-16T08:36:15.618Z,100836.41
2023-04-16T08:38:41.937Z,100840.13
2023-04-16T08:41:12.243Z,100838.63
2023-04-16T08:43:43.943Z,100840.72
2023-04-16T08:46:11.967Z,100844.19
2023-04-16T08:48:38.684Z,100851.31
2023-04-16T08:51:10.253Z,100848.75
2023-04-16T08:53:48.317Z,100848.88
2023-04-16T08:56:16.359Z,100856.72
2023-04-16T08:58:43.257Z,100873.53
2023-04-16T09:01:10.841Z,100872.59
2023-04-16T09:03:37.978Z,100871.38
2023-04-16T09:06:04.670Z,100859.06
2023-04-16T09:08:32.118Z,100873.38
2023-04-16T09:10:59.461Z,100854.13
2023-04-16T09:13:25.783Z,100864.97
2023-04-16T09:15:53.829Z,100867.81
2023-04-16T09:18:21.132Z,100865.38
2023-04-16T09:20:48.943Z,100864.56
2023-04-16T09:23:15.295Z,100876.94
2023-04-16T09:25:41.601Z,100873.00
2023-04-16T09:28:08.852Z,100867.34
2023-04-16T09:30:37.042Z,100871.91
2023-04-16T09:33:22.428Z,100874.50
2023-04-16T09:35:52.970Z,100878.19
2023-04-16T09:38:20.552Z,100876.50
2023-04-16T09:40:49.479Z,100863.53
2023-04-16T09:43:17.796Z,100866.56
2023-04-16T09:45:54.722Z,100867.91
2023-04-16T09:48:32.314Z,100867.13
2023-04-16T09:51:00.241Z,100855.72
2023-04-16T09:53:31.465Z,100878.19
2023-04-16T09:56:03.136Z,100883.03
2023-04-16T09:58:29.686Z,100875.00
2023-04-16T10:01:01.438Z,100891.91
2023-04-16T10:03:32.014Z,100874.19
2023-04-16T10:06:08.846Z,100884.06
2023-04-16T10:08:36.025Z,100889.91
2023-04-16T10:11:02.530Z,100899.66
2023-04-16T10:13:30.965Z,100910.22
2023-04-16T10:15:57.886Z,100903.16
2023-04-16T10:18:24.487Z,100899.53
2023-04-16T10:20:51.490Z,100902.06
2023-04-16T10:23:19.831Z,100904.19
2023-04-16T10:25:47.516Z,100906.94
2023-04-16T10:28:14.850Z,100911.41
2023-04-16T10:30:48.080Z,100912.00
2023-04-16T10:33:14.916Z,100914.09
2023-04-16T10:35:41.418Z,100911.56
2023-04-16T10:38:29.956Z,100920.66
2023-04-16T10:41:02.030Z,100919.25
2023-04-16T10:43:30.314Z,100923.66
2023-04-16T10:45:57.252Z,100924.53
2023-04-16T10:48:25.503Z,100923.16
2023-04-16T10:50:57.357Z,100923.59
2023-04-16T10:53:26.687Z,100923.84
2023-04-16T10:56:02.582Z,100907.78
2023-04-16T10:58:30.185Z,100922.81
2023-04-16T11:01:00.335Z,100929.97
2023-04-16T11:03:33.448Z,100915.66
2023-04-16T11:06:10.914Z,100927.16
2023-04-16T11:08:53.271Z,100921.06
2023-04-16T11:11:21.929Z,100914.56
2023-04-16T11:13:48.238Z,100927.25
2023-04-16T11:16:16.161Z,100916.19
2023-04-16T11:18:47.761Z,100915.19
2023-04-16T11:21:19.441Z,100913.06
2023-04-16T11:23:47.794Z,100915.59
2023-04-16T11:26:30.651Z,100903.50
2023-04-16T11:28:57.364Z,100909.06
2023-04-16T11:31:24.257Z,100913.63
2023-04-16T11:33:50.808Z,100908.16
2023-04-16T11:36:17.280Z,100913.69
2023-04-16T11:38:43.621Z,100912.88
2023-04-16T11:41:11.057Z,100912.06
2023-04-16T11:43:37.541Z,100923.78
2023-04-16T11:46:20.042Z,100916.00
2023-04-16T11:48:55.424Z,100913.38
2023-04-16T11:51:23.208Z,100918.00
2023-04-16T11:53:53.866Z,100920.09
2023-04-16T11:56:31.201Z,100917.56
2023-04-16T11:59:18.138Z,100917.63
2023-04-16T12:01:52.471Z,100922.22
2023-04-16T12:04:20.800Z,100917.97
2023-04-16T12:07:12.863Z,100915.28
2023-04-16T12:09:41.881Z,100919.91
2023-04-16T12:12:30.574Z,100917.66
2023-04-16T12:15:00.008Z,100918.81
2023-04-16T12:17:26.583Z,100929.75
2023-04-16T12:19:57.302Z,100922.09
2023-04-16T12:22:31.089Z,100919.38
2023-04-16T12:25:10.575Z,100921.34
2023-04-16T12:27:48.596Z,100922.38
2023-04-16T12:30:17.705Z,100935.69
2023-04-16T12:32:45.985Z,100918.13
2023-04-16T12:35:12.835Z,100920.97
2023-04-16T12:37:39.706Z,100920.16
2023-04-16T12:40:07.022Z,100905.03
2023-04-16T12:42:36.807Z,100929.31
2023-04-16T12:45:04.914Z,100932.91
2023-04-16T12:47:34.538Z,100923.31
2023-04-16T12:50:01.039Z,100930.88
2023-04-16T12:52:27.437Z,100928.19
2023-04-16T12:54:53.827Z,100925.66
2023-04-16T12:57:20.419Z,100916.69
2023-04-16T12:59:49.363Z,100922.06
2023-04-16T13:02:16.677Z,100917.81
2023-04-16T13:04:43.188Z,100917.81
2023-04-16T13:07:09.604Z,100915.91
2023-04-16T13:09:37.704Z,100917.63
2023-04-16T13:12:05.846Z,100931.13
2023-04-16T13:14:32.142Z,100921.50
2023-04-16T13:16:58.493Z,100918.81
2023-04-16T13:19:24.823Z,100924.91
2023-04-16T13:21:51.194Z,100931.25
2023-04-16T13:24:17.549Z,100920.44
2023-04-16T13:26:43.904Z,100924.19
2023-04-16T13:29:11.007Z,100923.34
2023-04-16T13:31:38.532Z,100926.22
2023-04-16T13:34:04.893Z,100916.53
2023-04-16T13:36:32.912Z,100926.31
2023-04-16T13:38:59.599Z,100931.56
2023-04-16T13:41:26.227Z,100923.44
2023-04-16T13:43:54.145Z,100925.34
2023-04-16T13:46:20.576Z,100942.88
2023-04-16T13:48:47.015Z,100935.84
2023-04-16T13:51:15.291Z,100944.06
2023-04-16T13:53:41.723Z,100934.97
2023-04-16T13:56:08.073Z,100936.94
2023-04-16T13:58:34.454Z,100927.13
2023-04-16T14:01:01.018Z,100927.84
2023-04-16T14:03:27.625Z,100935.84
2023-04-16T14:05:54.120Z,100927.88
2023-04-16T14:08:21.144Z,100930.56
2023-04-16T14:10:48.135Z,100945.63
2023-04-16T14:13:15.108Z,100940.44
2023-04-16T14:15:41.462Z,100936.94
2023-04-16T14:18:07.972Z,100936.88
2023-04-16T14:20:34.396Z,100934.94
2023-04-16T14:23:00.910Z,100934.88
2023-04-16T14:25:28.039Z,100933.34
2023-04-16T14:27:54.971Z,100938.75
2023-04-16T14:30:21.331Z,100936.13
2023-04-16T14:32:47.614Z,100921.13
2023-04-16T14:35:13.975Z,100936.09
2023-04-16T14:37:40.752Z,100933.63
2023-04-16T14:40:08.713Z,100944.16
2023-04-16T14:42:36.595Z,100935.25
2023-04-16T14:45:06.327Z,100931.63
2023-04-16T14:47:34.228Z,100929.88
2023-04-16T14:50:01.474Z,100927.19
2023-04-16T14:52:27.973Z,100926.38
2023-04-16T14:54:57.531Z,100925.59
2023-04-16T14:57:24.058Z,100922.91
2023-04-16T14:59:50.425Z,100922.06
2023-04-16T15:02:17.398Z,100930.09
2023-04-16T15:04:44.096Z,100925.69
2023-04-16T15:07:10.627Z,100930.03
2023-04-16T15:09:37.018Z,100934.44
2023-04-16T15:12:04.204Z,100936.25
2023-04-16T15:14:30.756Z,100929.09
2023-04-16T15:16:57.274Z,100930.00
2023-04-16T15:19:23.634Z,100925.63
2023-04-16T15:21:50.330Z,100937.19
2023-04-16T15:24:16.746Z,100937.13
2023-04-16T15:26:43.248Z,100938.00
2023-04-16T15:29:09.589Z,100946.03
2023-04-16T15:31:35.924Z,100944.97
2023-04-16T15:34:02.268Z,100937.00
2023-04-16T15:36:28.639Z,100942.44
2023-04-16T15:38:54.938Z,100943.34
2023-04-16T15:41:21.647Z,100939.03
2023-04-16T15:43:47.971Z,100960.31
2023-04-16T15:46:15.100Z,100947.84
2023-04-16T15:48:41.694Z,100950.59
2023-04-16T15:51:08.422Z,100964.66
2023-04-16T15:53:34.926Z,100953.84
2023-04-16T15:56:01.412Z,100952.03
2023-04-16T15:58:27.883Z,100952.13
2023-04-16T16:00:54.233Z,100949.63
2023-04-16T16:03:23.192Z,100949.75
2023-04-16T16:05:49.748Z,100957.66
2023-04-16T16:08:16.709Z,100954.03
2023-04-16T16:10:43.257Z,100956.66
2023-04-16T16:13:13.061Z,100957.31
2023-04-16T16:15:41.216Z,100961.66
2023-04-16T16:18:07.690Z,100961.50
2023-04-16T16:20:34.808Z,100969.56
2023-04-16T16:23:01.494Z,100960.53
2023-04-16T16:25:28.009Z,100973.06
2023-04-16T16:27:54.314Z,100956.28
2023-04-16T16:30:20.717Z,100958.94
2023-04-16T16:32:47.163Z,100963.31
2023-04-16T16:35:13.615Z,100969.41
2023-04-16T16:37:40.012Z,100961.47
2023-04-16T16:40:07.819Z,100969.47
2023-04-16T16:42:34.303Z,100977.56
2023-04-16T16:45:05.018Z,100978.44
2023-04-16T16:47:34.595Z,100974.72
2023-04-16T16:50:02.976Z,100970.06
2023-04-16T16:52:29.666Z,100964.50
2023-04-16T16:54:56.730Z,100973.34
2023-04-16T16:57:23.908Z,100978.50
2023-04-16T16:59:50.921Z,100988.13
2023-04-16T17:02:17.999Z,100975.81
2023-04-16T17:04:44.835Z,100980.38
2023-04-16T17:07:11.758Z,100981.22
2023-04-16T17:09:38.634Z,100987.22
2023-04-16T17:12:05.649Z,100994.94
2023-04-16T17:14:32.918Z,100989.50
2023-04-16T17:16:59.276Z,100991.97
2023-04-16T17:19:25.948Z,100984.91
2023-04-16T17:21:53.572Z,100993.47
2023-04-16T17:24:19.908Z,100999.56
2023-04-16T17:26:46.267Z,100990.69
2023-04-16T17:29:12.596Z,101000.28
2023-04-16T17:31:38.942Z,100988.59
2023-04-16T17:34:06.250Z,100984.84
2023-04-16T17:36:32.671Z,101003.41
2023-04-16T17:38:59.294Z,100994.44
2023-04-16T17:41:25.702Z,100995.31
2023-04-16T17:43:52.110Z,101002.34
2023-04-16T17:46:18.428Z,101013.72
2023-04-16T17:48:44.891Z,101018.88
2023-04-16T17:51:11.810Z,101019.69
2023-04-16T17:53:38.214Z,101024.09
2023-04-16T17:56:04.928Z,101027.66
2023-04-16T17:58:32.880Z,101036.50
2023-04-16T18:00:59.431Z,101039.06
2023-04-16T18:03:26.435Z,101038.97
2023-04-16T18:05:52.995Z,101035.34
2023-04-16T18:08:19.313Z,101038.72
2023-04-16T18:10:45.762Z,101043.13
2023-04-16T18:13:12.138Z,101054.50
2023-04-16T18:15:38.702Z,101055.31
2023-04-16T18:18:06.047Z,101049.06
2023-04-16T18:20:32.509Z,101052.47
2023-04-16T18:22:58.935Z,101049.69
2023-04-16T18:25:33.896Z,101051.47
2023-04-16T18:28:02.002Z,101049.56
2023-04-16T18:30:28.571Z,101050.31
2023-04-16T18:33:25.485Z,101048.50
2023-04-16T18:35:43.185Z,101058.19
2023-04-16T18:38:09.579Z,101056.38
2023-04-16T18:40:37.176Z,101061.75
2023-04-16T18:43:03.849Z,101061.66
2023-04-16T18:45:30.553Z,101062.47
2023-04-16T18:47:59.832Z,101073.91
2023-04-16T18:50:26.177Z,101074.72
2023-04-16T18:52:52.720Z,101073.84
2023-04-16T18:55:19.569Z,101071.25
2023-04-16T18:57:46.000Z,101077.31
2023-04-16T19:00:13.054Z,101077.28
2023-04-16T19:02:40.359Z,101081.59
2023-04-16T19:05:08.122Z,101076.28
2023-04-16T19:07:35.207Z,101083.44
2023-04-16T19:10:04.709Z,101082.47
2023-04-16T19:12:31.773Z,101086.91
2023-04-16T19:14:58.143Z,101095.66
2023-04-16T19:17:24.533Z,101085.00
2023-04-16T19:19:51.235Z,101093.84
2023-04-16T19:22:17.599Z,101089.41
2023-04-16T19:24:43.910Z,101095.63
2023-04-16T19:27:10.338Z,101098.28
2023-04-16T19:29:36.869Z,101092.81
2023-04-16T19:32:05.742Z,101089.28
2023-04-16T19:34:32.157Z,101099.00
2023-04-16T19:36:58.444Z,101101.47
2023-04-16T19:39:28.093Z,101104.22
2023-04-16T19:41:54.430Z,101095.38
2023-04-16T19:44:22.964Z,101103.41
2023-04-16T19:46:49.256Z,101092.75
2023-04-16T19:49:15.885Z,101101.50
2023-04-16T19:51:42.234Z,101091.69
2023-04-16T19:54:08.972Z,101103.22
2023-04-16T19:56:35.700Z,101097.91
2023-04-16T19:59:02.462Z,101103.28
2023-04-16T20:01:30.683Z,101102.22
2023-04-16T20:03:57.076Z,101096.81
2023-04-16T20:06:24.000Z,101102.13
2023-04-16T20:08:50.379Z,101096.69
2023-04-16T20:11:17.612Z,101104.59
2023-04-16T20:13:47.939Z,101103.72
2023-04-16T20:16:14.510Z,101102.00
2023-04-16T20:18:42.464Z,101104.66
2023-04-16T20:21:11.534Z,101104.59
2023-04-16T20:23:37.922Z,101105.41
2023-04-16T20:26:04.508Z,101101.75
2023-04-16T20:28:30.902Z,101112.34
2023-04-16T20:30:57.267Z,101107.13
2023-04-16T20:33:23.658Z,101109.78
2023-04-16T20:35:52.018Z,101108.72
2023-04-16T20:38:23.503Z,101109.53
2023-04-16T20:40:58.004Z,101118.38
2023-04-16T20:43:25.965Z,101107.53
2023-04-16T20:45:52.349Z,101110.31
2023-04-16T20:48:21.212Z,101113.84
2023-04-16T20:50:47.658Z,101112.13
2023-04-16T20:53:14.008Z,101107.53
2023-04-16T20:55:42.933Z,101113.72
2023-04-16T20:58:09.268Z,101110.94
2023-04-16T21:00:36.069Z,101112.72
2023-04-16T21:03:02.467Z,101108.91
2023-04-16T21:05:29.798Z,101109.81
2023-04-16T21:07:56.088Z,101110.88
2023-04-16T21:10:22.403Z,101109.91
2023-04-16T21:12:48.677Z,101114.22
2023-04-16T21:15:15.118Z,101116.28
2023-04-16T21:17:41.594Z,101109.22
2023-04-16T21:20:11.799Z,101112.59
2023-04-16T21:22:38.188Z,101110.16
2023-04-16T21:25:05.180Z,101109.06
2023-04-16T21:27:31.551Z,101110.94
2023-04-16T21:29:58.001Z,101105.81
2023-04-16T21:32:33.144Z,101114.59
2023-04-16T21:34:59.529Z,101109.22
2023-04-16T21:37:25.854Z,101108.22
2023-04-16T21:39:52.167Z,101103.88
2023-04-16T21:42:18.475Z,101114.78
2023-04-16T21:44:44.836Z,101119.19
2023-04-16T21:47:11.332Z,101113.78
2023-04-16T21:49:37.643Z,101114.47
2023-04-16T21:52:04.177Z,101111.94
2023-04-16T21:54:30.547Z,101107.66
2023-04-16T21:56:58.076Z,101104.97
2023-04-16T21:59:24.405Z,101095.06
2023-04-16T22:01:50.817Z,101110.75
2023-04-16T22:04:17.757Z,101111.78
2023-04-16T22:06:46.095Z,101119.94
2023-04-16T22:09:12.521Z,101107.63
2023-04-16T22:11:38.896Z,101112.16
2023-04-16T22:14:08.720Z,101112.13
2023-04-16T22:16:35.810Z,101117.34
2023-04-16T22:19:02.207Z,101108.47
2023-04-16T22:21:28.493Z,101111.13
2023-04-16T22:23:54.776Z,101120.88
2023-04-16T22:26:21.131Z,101112.81
2023-04-16T22:28:47.416Z,101108.47
2023-04-16T22:31:13.791Z,101105.78
2023-04-16T22:33:40.091Z,101112.84
2023-04-16T22:36:06.665Z,101111.00
2023-04-16T22:38:33.010Z,101107.47
2023-04-16T22:40:59.409Z,101104.63
2023-04-16T22:43:25.866Z,101097.63
2023-04-16T22:46:06.526Z,101109.91
2023-04-16T22:48:36.162Z,101110.09
2023-04-16T22:51:02.868Z,101108.91
2023-04-16T22:53:29.213Z,101111.59
2023-04-16T22:55:55.674Z,101105.22
2023-04-16T22:58:22.118Z,101112.50
2023-04-16T23:00:49.106Z,101104.44
2023-04-16T23:03:15.527Z,101100.94
2023-04-16T23:05:41.844Z,101105.47
2023-04-16T23:08:08.254Z,101098.34
2023-04-16T23:10:34.682Z,101106.25
2023-04-16T23:13:01.031Z,101099.03
2023-04-16T23:15:27.443Z,101100.72
2023-04-16T23:17:53.822Z,101098.78
2023-04-16T23:20:20.178Z,101098.91
2023-04-16T23:22:46.756Z,101106.97
2023-04-16T23:25:15.420Z,101104.22
2023-04-16T23:27:41.706Z,101097.75
2023-04-16T23:30:08.632Z,101106.41
2023-04-16T23:32:35.176Z,101106.06
2023-04-16T23:35:01.545Z,101112.13
2023-04-16T23:37:27.979Z,101110.91
2023-04-16T23:39:54.306Z,101107.84
2023-04-16T23:42:20.598Z,101113.81
2023-04-16T23:44:46.971Z,101109.09
2023-04-16T23:47:13.305Z,101107.25
2023-04-16T23:49:42.072Z,101109.09
2023-04-16T23:52:08.441Z,101109.66
2023-04-16T23:54:34.815Z,101107.84
2023-04-16T23:57:01.590Z,101104.25
2023-04-16T23:59:27.905Z,101103.28
